createdAt,value
2023-03-24T00:00:03.174Z,1014.19
2023-03-24T00:05:02.950Z,1014.29
2023-03-24T00:10:03.093Z,1014.37
2023-03-24T00:15:03.061Z,1014.48
2023-03-24T00:20:03.331Z,1014.59
2023-03-24T00:25:03.034Z,1014.77
2023-03-24T00:30:03.263Z,1014.9
2023-03-24T00:35:03.110Z,1014.97
2023-03-24T00:40:03.182Z,1015.01
2023-03-24T00:45:02.901Z,1015.12
2023-03-24T00:50:03.060Z,1015.2
2023-03-24T00:55:03.136Z,1015.29
2023-03-24T01:00:03.086Z,1015.32
2023-03-24T01:05:03.331Z,1015.34
2023-03-24T01:10:03.528Z,1015.41
2023-03-24T01:15:02.962Z,1015.41
2023-03-24T01:20:03.203Z,1015.45
2023-03-24T01:25:03.002Z,1015.52
2023-03-24T01:30:03.103Z,1015.52
2023-03-24T01:35:03.004Z,1015.51
2023-03-24T01:40:03.205Z,1015.53
2023-03-24T01:45:02.967Z,1015.56
2023-03-24T01:50:03.072Z,1015.53
2023-03-24T01:55:03.172Z,1015.48
2023-03-24T02:00:03.113Z,1015.57
2023-03-24T02:05:03.008Z,1015.6
2023-03-24T02:10:03.425Z,1015.61
2023-03-24T02:15:03.175Z,1015.58
2023-03-24T02:20:03.210Z,1015.51
2023-03-24T02:25:03.044Z,1015.49
2023-03-24T02:30:03.033Z,1015.48
2023-03-24T02:35:03.022Z,1015.52
2023-03-24T02:40:08.225Z,1015.53
2023-03-24T02:45:03.002Z,1015.57
2023-03-24T02:50:03.105Z,1015.56
2023-03-24T02:55:02.959Z,1015.46
2023-03-24T03:00:03.059Z,1015.48
2023-03-24T03:05:03.114Z,1015.46
2023-03-24T03:10:03.122Z,1015.38
2023-03-24T03:15:03.003Z,1015.32
2023-03-24T03:20:03.111Z,1015.31
2023-03-24T03:25:03.026Z,1015.3
2023-03-24T03:30:03.258Z,1015.28
2023-03-24T03:35:02.965Z,1015.18
2023-03-24T03:40:03.129Z,1015.11
2023-03-24T03:45:03.072Z,1015.08
2023-03-24T03:50:03.078Z,1015.02
2023-03-24T03:55:03.030Z,1014.98
2023-03-24T04:00:03.086Z,1014.94
2023-03-24T04:05:06.248Z,1014.97
2023-03-24T04:10:03.885Z,1015.02
2023-03-24T04:15:02.999Z,1014.9
2023-03-24T04:20:03.091Z,1014.83
2023-03-24T04:25:03.030Z,1014.76
2023-03-24T04:30:03.057Z,1014.75
2023-03-24T04:35:03.012Z,1014.81
2023-03-24T04:40:03.156Z,1014.77
2023-03-24T04:45:03.043Z,1014.75
2023-03-24T04:50:03.206Z,1014.78
2023-03-24T04:55:02.956Z,1014.75
2023-03-24T05:00:03.019Z,1014.63
2023-03-24T05:05:03.043Z,1014.46
2023-03-24T05:10:03.223Z,1014.48
2023-03-24T05:15:03.035Z,1014.45
2023-03-24T05:20:03.109Z,1014.32
2023-03-24T05:25:02.995Z,1014.41
2023-03-24T05:30:03.153Z,1014.39
2023-03-24T05:35:03.159Z,1014.37
2023-03-24T05:40:03.078Z,1014.34
2023-03-24T05:45:02.975Z,1014.38
2023-03-24T05:50:03.058Z,1014.36
2023-03-24T05:55:02.981Z,1014.38
2023-03-24T06:00:03.104Z,1014.31
2023-03-24T06:05:03.000Z,1014.19
2023-03-24T06:10:03.133Z,1014.1
2023-03-24T06:15:03.001Z,1014.08
2023-03-24T06:20:03.009Z,1013.96
2023-03-24T06:25:03.053Z,1013.76
2023-03-24T06:30:03.067Z,1013.51
2023-03-24T06:35:03.006Z,1013.33
2023-03-24T06:40:03.236Z,1013.2
2023-03-24T06:45:02.959Z,1013.24
2023-03-24T06:50:02.964Z,1013.25
2023-03-24T06:55:02.935Z,1013.19
2023-03-24T07:00:03.055Z,1013.09
2023-03-24T07:05:02.971Z,1013.11
2023-03-24T07:10:03.117Z,1013.22
2023-03-24T07:15:02.999Z,1013.16
2023-03-24T07:20:03.607Z,1013.18
2023-03-24T07:25:02.958Z,1013.23
2023-03-24T07:30:03.057Z,1013.23
2023-03-24T07:35:03.012Z,1013.22
2023-03-24T07:40:03.090Z,1013.22
2023-03-24T07:45:03.093Z,1013.32
2023-03-24T07:50:03.042Z,1013.42
2023-03-24T07:55:03.060Z,1013.43
2023-03-24T08:00:03.102Z,1013.53
2023-03-24T08:05:02.964Z,1013.59
2023-03-24T08:10:03.081Z,1013.62
2023-03-24T08:15:03.158Z,1013.65
2023-03-24T08:20:04.775Z,1013.8
2023-03-24T08:25:02.946Z,1013.81
2023-03-24T08:30:03.069Z,1013.77
2023-03-24T08:35:02.957Z,1013.77
2023-03-24T08:40:03.102Z,1013.78
2023-03-24T08:45:03.017Z,1013.83
2023-03-24T08:50:03.089Z,1013.87
2023-03-24T08:55:02.990Z,1013.9
2023-03-24T09:00:03.123Z,1013.84
2023-03-24T09:05:03.175Z,1013.84
2023-03-24T09:10:02.978Z,1013.85
2023-03-24T09:15:02.945Z,1013.9
2023-03-24T09:20:03.343Z,1013.98
2023-03-24T09:25:02.976Z,1014.0
2023-03-24T09:30:03.148Z,1014.07
2023-03-24T09:35:02.916Z,1014.13
2023-03-24T09:40:03.098Z,1014.18
2023-03-24T09:45:02.975Z,1014.22
2023-03-24T09:50:03.261Z,1014.28
2023-03-24T09:55:03.134Z,1014.37
2023-03-24T10:00:03.069Z,1014.43
2023-03-24T10:05:03.097Z,1014.49
2023-03-24T10:10:03.086Z,1014.56
2023-03-24T10:15:03.007Z,1014.71
2023-03-24T10:20:03.013Z,1014.76
2023-03-24T10:25:03.034Z,1014.82
2023-03-24T10:30:03.151Z,1014.84
2023-03-24T10:35:02.926Z,1014.93
2023-03-24T10:40:03.189Z,1014.98
2023-03-24T10:45:02.960Z,1014.96
2023-03-24T10:50:11.888Z,1015.08
2023-03-24T10:55:03.016Z,1015.1
2023-03-24T11:00:03.095Z,1015.13
2023-03-24T11:05:03.005Z,1015.23
2023-03-24T11:10:03.277Z,1015.3
2023-03-24T11:15:14.140Z,1015.3
2023-03-24T11:20:03.041Z,1015.3
2023-03-24T11:25:03.153Z,1015.27
2023-03-24T11:30:03.039Z,1015.34
2023-03-24T11:35:03.029Z,1015.4
2023-03-24T11:40:02.974Z,1015.42
2023-03-24T11:45:02.995Z,1015.49
2023-03-24T11:50:03.086Z,1015.59
2023-03-24T11:55:03.006Z,1015.61
2023-03-24T12:00:03.113Z,1015.65
2023-03-24T12:05:02.984Z,1015.7
2023-03-24T12:10:03.127Z,1015.8
2023-03-24T12:15:03.129Z,1015.79
2023-03-24T12:20:02.997Z,1015.85
2023-03-24T12:25:03.010Z,1015.85
2023-03-24T12:30:03.235Z,1015.92
2023-03-24T12:35:02.946Z,1015.97
2023-03-24T12:40:03.198Z,1016.01
2023-03-24T12:45:02.965Z,1016.08
2023-03-24T12:50:03.083Z,1016.15
2023-03-24T12:55:02.979Z,1016.19
2023-03-24T13:00:03.107Z,1016.17
2023-03-24T13:05:02.969Z,1016.19
2023-03-24T13:10:03.085Z,1016.24
2023-03-24T13:15:02.987Z,1016.3
2023-03-24T13:20:03.044Z,1016.31
2023-03-24T13:25:03.060Z,1016.33
2023-03-24T13:30:03.026Z,1016.35
2023-03-24T13:35:03.047Z,1016.37
2023-03-24T13:40:03.230Z,1016.39
2023-03-24T13:45:03.010Z,1016.33
2023-03-24T13:50:03.226Z,1016.28
2023-03-24T13:55:02.944Z,1016.25
2023-03-24T14:00:03.074Z,1016.2
2023-03-24T14:05:03.256Z,1016.16
2023-03-24T14:10:03.097Z,1016.11
2023-03-24T14:15:03.044Z,1016.07
2023-03-24T14:20:03.098Z,1016.1
2023-03-24T14:25:02.995Z,1016.01
2023-03-24T14:30:03.178Z,1015.97
2023-03-24T14:35:03.218Z,1015.91
2023-03-24T14:40:03.091Z,1015.83
2023-03-24T14:45:03.236Z,1015.76
2023-03-24T14:50:03.062Z,1015.71
2023-03-24T14:55:02.969Z,1015.71
2023-03-24T15:00:03.104Z,1015.62
2023-03-24T15:05:02.976Z,1015.5
2023-03-24T15:10:03.057Z,1015.43
2023-03-24T15:15:02.971Z,1015.39
2023-03-24T15:20:03.124Z,1015.33
2023-03-24T15:25:02.975Z,1015.24
2023-03-24T15:30:03.068Z,1015.21
2023-03-24T15:35:02.996Z,1015.09
2023-03-24T15:40:15.072Z,1015.0
2023-03-24T15:45:02.986Z,1014.9
2023-03-24T15:50:04.326Z,1014.82
2023-03-24T15:55:02.990Z,1014.84
2023-03-24T16:00:03.113Z,1014.67
2023-03-24T16:10:03.090Z,1014.51
2023-03-24T16:15:03.030Z,1014.2
2023-03-24T16:20:03.162Z,1014.07
2023-03-24T16:25:02.986Z,1013.95
2023-03-24T16:30:03.000Z,1013.82
2023-03-24T16:35:03.055Z,1013.71
2023-03-24T16:40:03.774Z,1013.65
2023-03-24T16:45:02.961Z,1013.55
2023-03-24T16:50:03.175Z,1013.39
2023-03-24T16:55:03.003Z,1013.31
2023-03-24T17:00:03.124Z,1013.1
2023-03-24T17:05:03.018Z,1012.89
2023-03-24T17:10:03.162Z,1012.73
2023-03-24T17:15:03.138Z,1012.59
2023-03-24T17:20:05.277Z,1012.48
2023-03-24T17:25:03.126Z,1012.41
2023-03-24T17:30:03.175Z,1012.31
2023-03-24T17:35:03.152Z,1012.16
2023-03-24T17:40:03.130Z,1012.09
2023-03-24T17:45:02.987Z,1012.01
2023-03-24T17:50:03.113Z,1011.97
2023-03-24T17:55:02.968Z,1011.88
2023-03-24T18:00:03.197Z,1011.8
2023-03-24T18:05:02.945Z,1011.76
2023-03-24T18:10:03.148Z,1011.74
2023-03-24T18:15:03.012Z,1011.77
2023-03-24T18:20:03.127Z,1011.7
2023-03-24T18:25:02.998Z,1011.73
2023-03-24T18:30:03.217Z,1011.74
2023-03-24T18:35:02.982Z,1011.72
2023-03-24T18:40:03.096Z,1011.74
2023-03-24T18:45:03.014Z,1011.69
2023-03-24T18:50:03.332Z,1011.59
2023-03-24T18:55:03.144Z,1011.51
2023-03-24T19:00:03.095Z,1011.69
2023-03-24T19:05:02.972Z,1011.83
2023-03-24T19:10:03.290Z,1011.74
2023-03-24T19:15:03.003Z,1011.62
2023-03-24T19:20:03.135Z,1011.54
2023-03-24T19:25:03.033Z,1011.56
2023-03-24T19:30:03.143Z,1011.65
2023-03-24T19:35:03.106Z,1011.53
2023-03-24T19:40:03.112Z,1011.44
2023-03-24T19:45:03.044Z,1011.36
2023-03-24T19:50:03.390Z,1011.34
2023-03-24T19:55:03.148Z,1011.32
2023-03-24T20:00:03.139Z,1011.27
2023-03-24T20:05:02.964Z,1011.28
2023-03-24T20:10:03.078Z,1011.22
2023-03-24T20:15:02.904Z,1011.22
2023-03-24T20:20:03.262Z,1011.08
2023-03-24T20:25:03.070Z,1011.05
2023-03-24T20:30:03.174Z,1011.0
2023-03-24T20:35:03.011Z,1011.07
2023-03-24T20:40:03.055Z,1011.06
2023-03-24T20:45:03.019Z,1010.99
2023-03-24T20:50:03.073Z,1011.0
2023-03-24T20:55:02.954Z,1010.97
2023-03-24T21:00:03.090Z,1010.96
2023-03-24T21:05:03.009Z,1010.98
2023-03-24T21:10:03.290Z,1011.08
2023-03-24T21:15:02.969Z,1011.09
2023-03-24T21:20:03.128Z,1011.12
2023-03-24T21:25:03.088Z,1011.12
2023-03-24T21:30:03.339Z,1011.13
2023-03-24T21:35:03.016Z,1011.16
2023-03-24T21:40:08.090Z,1011.15
2023-03-24T21:45:03.155Z,1011.15
2023-03-24T21:50:03.161Z,1011.18
2023-03-24T21:55:02.969Z,1011.18
2023-03-24T22:00:03.274Z,1011.18
2023-03-24T22:05:02.995Z,1011.22
2023-03-24T22:10:03.129Z,1011.19
2023-03-24T22:15:03.155Z,1011.16
2023-03-24T22:20:03.272Z,1011.23
2023-03-24T22:25:03.066Z,1011.38
2023-03-24T22:30:03.165Z,1011.37
2023-03-24T22:35:03.094Z,1011.46
2023-03-24T22:40:03.129Z,1011.57
2023-03-24T22:45:03.048Z,1011.7
2023-03-24T22:50:03.204Z,1011.79
2023-03-24T22:55:03.033Z,1011.84
2023-03-24T23:00:03.112Z,1011.91
2023-03-24T23:05:03.325Z,1011.97
2023-03-24T23:10:03.085Z,1012.03
2023-03-24T23:15:02.974Z,1012.06
2023-03-24T23:20:03.108Z,1012.19
2023-03-24T23:25:03.312Z,1012.36
2023-03-24T23:30:03.102Z,1012.38
2023-03-24T23:35:03.280Z,1012.38
2023-03-24T23:40:03.100Z,1012.49
2023-03-24T23:45:03.001Z,1012.56
2023-03-24T23:50:03.114Z,1012.54
2023-03-24T23:55:03.054Z,1012.49
